createdAt,value
2023-04-01T00:01:01.425Z,68.58
2023-04-01T00:05:53.430Z,68.42
2023-04-01T00:10:46.305Z,67.78
2023-04-01T00:15:38.077Z,68.14
2023-04-01T00:20:30.844Z,68.43
2023-04-01T00:25:23.774Z,68.40
2023-04-01T00:30:16.525Z,67.93
2023-04-01T00:35:09.257Z,68.38
2023-04-01T00:40:01.097Z,68.92
2023-04-01T00:44:55.437Z,68.51
2023-04-01T00:49:51.866Z,68.69
2023-04-01T00:54:47.678Z,68.39
2023-04-01T00:59:48.933Z,68.28
2023-04-01T01:04:40.857Z,68.22
2023-04-01T01:09:44.195Z,67.95
2023-04-01T01:14:46.617Z,67.96
2023-04-01T01:20:26.570Z,68.35
2023-04-01T01:25:26.931Z,68.16
2023-04-01T01:30:35.520Z,68.41
2023-04-01T01:35:27.222Z,68.79
2023-04-01T01:40:20.425Z,69.92
2023-04-01T01:45:17.218Z,70.27
2023-04-01T01:50:12.187Z,70.83
2023-04-01T01:55:04.282Z,71.87
2023-04-01T02:00:14.765Z,72.77
2023-04-01T02:05:12.992Z,73.65
2023-04-01T02:10:05.546Z,74.49
2023-04-01T02:15:15.581Z,75.69
2023-04-01T02:20:18.795Z,77.11
2023-04-01T02:25:15.759Z,78.51
2023-04-01T02:30:08.533Z,79.59
2023-04-01T02:35:04.262Z,78.67
2023-04-01T02:40:01.739Z,79.91
2023-04-01T02:44:53.763Z,80.54
2023-04-01T02:49:45.804Z,79.86
2023-04-01T02:54:37.553Z,80.28
2023-04-01T02:59:29.491Z,79.52
2023-04-01T03:04:21.291Z,79.00
2023-04-01T03:09:13.123Z,77.19
2023-04-01T03:14:04.868Z,77.09
2023-04-01T10:06:10.358Z,71.87
2023-04-01T10:11:28.085Z,71.51
2023-04-01T10:16:44.599Z,71.51
2023-04-01T10:22:07.753Z,71.91
2023-04-01T10:27:19.328Z,70.82
2023-04-01T10:33:04.592Z,70.10
2023-04-01T10:38:28.903Z,70.11
2023-04-01T10:43:46.734Z,69.82
2023-04-01T10:48:45.543Z,69.64
2023-04-01T10:53:59.198Z,69.88
2023-04-01T10:59:29.378Z,67.06
2023-04-01T11:05:19.495Z,67.55
2023-04-01T11:10:53.773Z,66.61
2023-04-01T11:16:21.378Z,64.82
2023-04-01T11:21:16.538Z,63.89
2023-04-01T11:26:18.532Z,63.66
2023-04-01T11:31:53.531Z,63.04
2023-04-01T11:36:48.938Z,64.27
2023-04-01T11:42:14.138Z,65.00
2023-04-01T11:47:58.973Z,64.50
2023-04-01T11:56:06.115Z,65.66
2023-04-01T12:01:00.862Z,66.87
2023-04-01T12:06:17.506Z,65.75
2023-04-01T12:11:46.513Z,64.11
2023-04-01T12:17:08.941Z,61.69
2023-04-01T12:22:25.932Z,60.80
2023-04-01T12:27:45.055Z,60.63
2023-04-01T12:33:15.049Z,60.46
2023-04-01T12:38:51.859Z,62.24
2023-04-01T12:43:43.616Z,61.97
2023-04-01T12:49:00.383Z,61.48
2023-04-01T12:54:43.766Z,61.03
2023-04-01T13:00:10.703Z,61.30
2023-04-01T13:05:22.022Z,61.22
2023-04-01T13:10:32.901Z,61.35
2023-04-01T13:15:38.502Z,61.70
2023-04-01T13:20:36.442Z,63.25
2023-04-01T13:25:42.873Z,63.10
2023-04-01T13:30:45.834Z,63.30
2023-04-01T13:35:54.244Z,64.02
2023-04-01T13:41:41.334Z,66.68
2023-04-01T13:47:26.138Z,66.22
2023-04-01T13:52:42.649Z,67.29
2023-04-01T13:57:55.845Z,67.32
2023-04-01T14:03:06.066Z,65.83
2023-04-01T14:08:07.124Z,65.45
2023-04-01T14:13:23.823Z,68.79
2023-04-01T14:18:38.362Z,68.60
2023-04-01T14:24:15.062Z,69.64
2023-04-01T14:29:54.963Z,69.67
2023-04-01T14:35:31.973Z,69.92
2023-04-01T14:40:49.063Z,71.61
2023-04-01T14:46:06.279Z,72.72
2023-04-01T14:51:10.559Z,71.41
2023-04-01T14:56:07.166Z,69.31
2023-04-01T15:01:14.796Z,68.06
2023-04-01T15:06:15.931Z,67.99
2023-04-01T15:11:24.844Z,68.61
2023-04-01T15:16:25.061Z,68.74
2023-04-01T15:21:32.194Z,69.70
2023-04-01T15:26:47.642Z,68.65
2023-04-01T15:32:24.672Z,68.47
2023-04-01T15:37:47.450Z,68.34
2023-04-01T15:42:56.327Z,69.72
2023-04-01T15:48:00.073Z,67.05
2023-04-01T15:53:33.091Z,67.06
2023-04-01T15:58:41.821Z,66.78
2023-04-01T16:03:43.896Z,67.96
2023-04-01T16:09:03.905Z,69.04
2023-04-01T16:14:25.967Z,69.00
2023-04-01T16:19:51.846Z,69.72
2023-04-01T16:24:51.186Z,72.28
2023-04-01T16:29:51.989Z,73.11
2023-04-01T16:35:11.622Z,72.56
2023-04-01T16:40:35.879Z,72.49
2023-04-01T16:45:38.031Z,73.29
2023-04-01T16:50:47.791Z,74.24
2023-04-01T16:55:50.519Z,74.33
2023-04-01T17:00:50.819Z,73.77
2023-04-01T17:05:53.192Z,74.30
2023-04-01T17:10:52.829Z,73.60
2023-04-01T17:16:18.958Z,74.06
2023-04-01T17:21:28.881Z,73.73
2023-04-01T17:26:42.724Z,74.39
2023-04-01T17:31:51.158Z,75.84
2023-04-01T17:37:10.741Z,76.70
2023-04-01T17:42:23.115Z,77.17
2023-04-01T17:47:49.605Z,77.69
2023-04-01T17:53:10.982Z,78.66
2023-04-01T17:58:29.432Z,78.45
2023-04-01T18:03:59.319Z,78.77
2023-04-01T18:09:22.266Z,78.76
2023-04-01T18:14:23.320Z,79.30
2023-04-01T18:19:24.435Z,80.26
2023-04-01T18:24:19.195Z,81.71
2023-04-01T18:29:19.130Z,81.22
2023-04-01T18:34:40.693Z,81.31
2023-04-01T18:39:41.623Z,81.53
2023-04-01T18:44:48.788Z,81.45
2023-04-01T18:49:44.923Z,81.91
2023-04-01T18:55:09.903Z,81.72
2023-04-01T19:00:31.049Z,82.09
2023-04-01T19:05:35.116Z,83.19
2023-04-01T19:11:11.419Z,82.88
2023-04-01T19:16:25.636Z,82.83
2023-04-01T19:21:23.460Z,81.88
2023-04-01T19:26:40.151Z,82.08
2023-04-01T19:31:55.325Z,82.25
2023-04-01T19:36:55.668Z,82.75
2023-04-01T19:42:04.468Z,83.38
2023-04-01T19:47:16.219Z,83.12
2023-04-01T19:52:20.228Z,82.86
2023-04-01T19:57:23.495Z,82.79
2023-04-01T20:02:27.734Z,82.32
2023-04-01T20:07:27.793Z,82.37
2023-04-01T20:12:22.744Z,82.20
2023-04-01T20:17:17.858Z,82.10
2023-04-01T20:22:31.233Z,82.25
2023-04-01T20:27:32.764Z,82.28
2023-04-01T20:32:35.349Z,82.94
2023-04-01T20:37:43.138Z,83.21
2023-04-01T20:43:13.216Z,82.60
2023-04-01T20:48:33.844Z,83.54
2023-04-01T20:53:43.446Z,83.53
2023-04-01T20:58:52.771Z,83.92
2023-04-01T21:03:56.618Z,83.82
2023-04-01T21:09:07.760Z,84.61
2023-04-01T21:14:05.700Z,84.60
2023-04-01T21:19:14.103Z,84.68
2023-04-01T21:24:30.995Z,84.21
2023-04-01T21:29:54.690Z,84.32
2023-04-01T21:35:14.907Z,84.35
2023-04-01T21:40:18.891Z,84.81
2023-04-01T21:45:37.127Z,84.16
2023-04-01T21:50:46.765Z,84.40
2023-04-01T21:55:41.719Z,85.26
2023-04-01T22:00:49.680Z,84.92
2023-04-01T22:05:51.165Z,85.21
2023-04-01T22:11:08.097Z,85.06
2023-04-01T22:16:14.272Z,85.73
2023-04-01T22:21:22.262Z,86.22
2023-04-01T22:26:23.452Z,85.76
2023-04-01T22:31:24.354Z,86.15
2023-04-01T22:36:47.775Z,86.42
2023-04-01T22:41:57.190Z,87.03
2023-04-01T22:47:16.099Z,86.34
2023-04-01T22:52:28.329Z,87.04
2023-04-01T22:57:55.192Z,86.71
2023-04-01T23:03:03.302Z,86.55
2023-04-01T23:08:06.625Z,86.80
2023-04-01T23:13:03.256Z,86.31
2023-04-01T23:18:22.019Z,85.81
2023-04-01T23:23:17.366Z,85.41
2023-04-01T23:28:14.838Z,85.12
2023-04-01T23:33:20.966Z,85.09
2023-04-01T23:38:12.928Z,84.96
2023-04-01T23:43:15.019Z,85.10
2023-04-01T23:48:07.263Z,84.99
2023-04-01T23:53:17.748Z,85.38
2023-04-01T23:58:11.865Z,85.72
